createdAt,value
2023-05-01T00:01:30.801Z,95.5
2023-05-01T00:06:36.935Z,95
2023-05-01T00:11:42.989Z,94.5
2023-05-01T00:16:49.123Z,96.5
2023-05-01T00:21:55.151Z,96.5
2023-05-01T00:27:01.232Z,96.5
2023-05-01T00:32:07.381Z,95
2023-05-01T00:37:13.442Z,95
2023-05-01T00:42:19.529Z,95.5
2023-05-01T00:47:25.650Z,95
2023-05-01T00:52:31.745Z,95.5
2023-05-01T00:57:37.828Z,94.5
2023-05-01T01:02:43.946Z,93.5
2023-05-01T01:07:50.009Z,95
2023-05-01T01:12:56.126Z,95
2023-05-01T01:18:02.215Z,94.5
2023-05-01T01:23:08.327Z,95
2023-05-01T01:28:14.440Z,94
2023-05-01T01:33:20.513Z,95.5
2023-05-01T01:38:26.633Z,95.5
2023-05-01T01:43:32.684Z,96.5
2023-05-01T01:48:38.796Z,97.5
2023-05-01T01:53:44.939Z,95.5
2023-05-01T01:58:50.984Z,91.5
2023-05-01T02:03:57.112Z,93.5
2023-05-01T02:09:08.772Z,95
2023-05-01T02:14:20.489Z,96
2023-05-01T02:19:32.233Z,95.5
2023-05-01T02:24:44.001Z,96.5
2023-05-01T02:29:50.053Z,94
2023-05-01T02:34:56.151Z,94.5
2023-05-01T02:40:02.260Z,96
2023-05-01T02:45:08.359Z,94.5
2023-05-01T02:50:14.467Z,95.5
2023-05-01T02:55:20.567Z,94.5
2023-05-01T03:00:26.700Z,96.5
2023-05-01T03:05:32.749Z,95
2023-05-01T03:10:38.836Z,96.5
2023-05-01T03:15:44.977Z,95
2023-05-01T03:20:51.047Z,95.5
2023-05-01T03:25:57.084Z,94
2023-05-01T03:31:03.224Z,94
2023-05-01T03:36:09.294Z,94.5
2023-05-01T03:41:15.414Z,95.5
2023-05-01T03:46:21.567Z,94.5
2023-05-01T03:51:27.554Z,92.5
2023-05-01T03:56:33.695Z,95
2023-05-01T04:01:39.889Z,95.5
2023-05-01T04:06:51.546Z,93.5
2023-05-01T04:12:03.255Z,94
2023-05-01T04:17:14.991Z,94.5
2023-05-01T04:22:21.022Z,95
2023-05-01T04:27:27.128Z,94
2023-05-01T04:32:33.212Z,94.5
2023-05-01T04:37:39.280Z,94
2023-05-01T04:42:45.414Z,95
2023-05-01T04:47:51.506Z,95
2023-05-01T04:52:57.598Z,93.5
2023-05-01T04:58:03.689Z,94
2023-05-01T05:03:09.861Z,93.5
2023-05-01T05:08:15.885Z,94.5
2023-05-01T05:13:21.977Z,93.5
2023-05-01T05:18:28.067Z,95
2023-05-01T05:23:34.156Z,93.5
2023-05-01T05:28:40.377Z,93
2023-05-01T05:33:46.348Z,93.5
2023-05-01T05:38:52.437Z,92
2023-05-01T05:43:58.540Z,94.5
2023-05-01T05:49:04.620Z,94
2023-05-01T05:54:10.696Z,93.5
2023-05-01T05:59:22.455Z,93
2023-05-01T06:04:28.544Z,93
2023-05-01T06:09:40.288Z,93
2023-05-01T06:14:46.383Z,92.5
2023-05-01T06:19:52.472Z,93.5
2023-05-01T06:24:58.569Z,92
2023-05-01T06:30:04.671Z,92.5
2023-05-01T06:35:10.744Z,92.5
2023-05-01T06:40:16.841Z,92.5
2023-05-01T06:45:22.944Z,93.5
2023-05-01T06:50:29.044Z,93.5
2023-05-01T06:55:35.976Z,93.5
2023-05-01T07:00:41.275Z,93.5
2023-05-01T07:05:47.302Z,92.5
2023-05-01T07:10:53.431Z,92
2023-05-01T07:15:59.495Z,92.5
2023-05-01T07:21:05.592Z,90.5
2023-05-01T07:26:11.689Z,89.5
2023-05-01T07:31:17.785Z,91
2023-05-01T07:36:23.886Z,90
2023-05-01T07:41:29.969Z,89
2023-05-01T07:46:36.113Z,90.5
2023-05-01T07:51:47.781Z,91.5
2023-05-01T07:56:53.896Z,89
2023-05-01T08:02:00.017Z,88
2023-05-01T08:07:06.072Z,90.5
2023-05-01T08:12:12.181Z,90.5
2023-05-01T08:17:18.263Z,92
2023-05-01T08:22:24.385Z,90.5
2023-05-01T08:27:30.478Z,93.5
2023-05-01T08:32:36.619Z,94.5
2023-05-01T08:37:42.628Z,92
2023-05-01T08:42:48.742Z,95
2023-05-01T08:47:54.866Z,91.5
2023-05-01T08:53:00.922Z,90.5
2023-05-01T08:58:07.010Z,92
2023-05-01T09:03:13.152Z,89.5
2023-05-01T09:08:19.219Z,90
2023-05-01T09:13:25.326Z,91.5
2023-05-01T09:18:31.404Z,90
2023-05-01T09:23:37.516Z,90
2023-05-01T09:28:43.562Z,88
2023-05-01T09:33:55.342Z,89.5
2023-05-01T09:39:07.044Z,89
2023-05-01T09:44:18.811Z,89
2023-05-01T09:49:24.857Z,90.5
2023-05-01T09:54:30.955Z,90
2023-05-01T09:59:37.076Z,90.5
2023-05-01T10:04:43.166Z,92.5
2023-05-01T10:09:49.259Z,92.5
2023-05-01T10:14:55.338Z,91.5
2023-05-01T10:20:01.456Z,91.5
2023-05-01T10:25:07.549Z,92.5
2023-05-01T10:30:13.637Z,93
2023-05-01T10:35:19.711Z,93
2023-05-01T10:40:25.841Z,90.5
2023-05-01T10:45:32.392Z,91.5
2023-05-01T10:50:38.006Z,91.5
2023-05-01T10:55:44.099Z,92
2023-05-01T11:00:50.202Z,91
2023-05-01T11:05:56.342Z,91
2023-05-01T11:11:02.378Z,91.5
2023-05-01T11:16:08.514Z,90
2023-05-01T11:21:14.567Z,90.5
2023-05-01T11:26:26.277Z,92.5
2023-05-01T11:31:38.122Z,91
2023-05-01T11:36:44.139Z,94
2023-05-01T11:41:50.237Z,92
2023-05-01T11:46:56.333Z,91
2023-05-01T11:52:02.418Z,89
2023-05-01T11:57:08.493Z,91.5
2023-05-01T12:02:14.611Z,88
2023-05-01T12:07:20.697Z,90
2023-05-01T12:12:26.782Z,89
2023-05-01T12:17:32.917Z,90
2023-05-01T12:22:38.997Z,90
2023-05-01T12:27:45.040Z,89
2023-05-01T12:32:51.202Z,91
2023-05-01T12:37:57.251Z,91
2023-05-01T12:43:03.383Z,88.5
2023-05-01T12:48:09.469Z,89
2023-05-01T12:53:15.526Z,87
2023-05-01T12:58:21.639Z,88.5
2023-05-01T13:03:27.750Z,89.5
2023-05-01T13:08:33.827Z,87
2023-05-01T13:13:45.562Z,85.5
2023-05-01T13:18:51.647Z,91.5
2023-05-01T13:23:57.753Z,87.5
2023-05-01T13:29:03.856Z,90.5
2023-05-01T13:34:09.950Z,88
2023-05-01T13:39:15.983Z,90.5
2023-05-01T13:44:22.118Z,91
2023-05-01T13:49:28.244Z,91.5
2023-05-01T13:54:34.292Z,88.5
2023-05-01T13:59:40.413Z,92
2023-05-01T14:04:46.641Z,89.5
2023-05-01T14:09:52.606Z,86.5
2023-05-01T14:14:58.910Z,89.5
2023-05-01T14:20:04.858Z,90.5
2023-05-01T14:25:16.504Z,93
2023-05-01T14:30:22.615Z,91
2023-05-01T14:35:28.680Z,91.5
2023-05-01T14:40:34.755Z,88.5
2023-05-01T14:45:40.883Z,91.5
2023-05-01T14:50:52.636Z,88.5
2023-05-01T14:56:04.365Z,86
2023-05-01T15:01:16.089Z,86.5
2023-05-01T15:06:22.202Z,87.5
2023-05-01T15:11:28.267Z,86.5
2023-05-01T15:16:34.475Z,86
2023-05-01T15:21:40.457Z,87.5
2023-05-01T15:26:46.539Z,86.5
2023-05-01T15:31:58.413Z,88
2023-05-01T15:36:58.770Z,86.5
2023-05-01T15:42:04.837Z,87
2023-05-01T15:47:11.024Z,88.5
2023-05-01T15:52:17.033Z,90
2023-05-01T15:57:23.110Z,88.5
2023-05-01T16:02:29.331Z,87.5
2023-05-01T16:07:35.312Z,86.5
2023-05-01T16:12:41.389Z,88.5
2023-05-01T16:17:47.507Z,85.5
2023-05-01T16:22:53.586Z,84.5
2023-05-01T16:27:59.652Z,85
2023-05-01T16:33:05.764Z,86
2023-05-01T16:38:11.899Z,85.5
2023-05-01T16:43:23.619Z,88
2023-05-01T16:48:35.348Z,87.5
2023-05-01T16:53:41.433Z,87
2023-05-01T16:58:47.579Z,84
2023-05-01T17:03:53.671Z,88
2023-05-01T17:08:59.701Z,88.5
2023-05-01T17:14:05.789Z,88.5
2023-05-01T17:19:11.907Z,88.5
2023-05-01T17:24:17.984Z,88.5
2023-05-01T17:29:24.130Z,91
2023-05-01T17:34:30.152Z,92.5
2023-05-01T17:39:36.268Z,92.5
2023-05-01T17:44:42.386Z,90
2023-05-01T17:49:48.463Z,91.5
2023-05-01T17:54:54.563Z,91.5
2023-05-01T18:00:00.956Z,94
2023-05-01T18:05:06.752Z,92
2023-05-01T18:10:12.852Z,93.5
2023-05-01T18:15:22.390Z,94.5
2023-05-01T18:20:25.017Z,91
2023-05-01T18:25:31.118Z,91.5
2023-05-01T18:30:42.883Z,92
2023-05-01T18:35:54.601Z,92.5
2023-05-01T18:41:00.684Z,92
2023-05-01T18:46:06.822Z,93
2023-05-01T18:51:12.884Z,93
2023-05-01T18:56:18.975Z,95
2023-05-01T19:01:25.094Z,92.5
2023-05-01T19:06:31.215Z,94
2023-05-01T19:11:37.245Z,93.5
2023-05-01T19:16:43.440Z,94
2023-05-01T19:21:49.437Z,94
2023-05-01T19:26:55.526Z,94.5
2023-05-01T19:32:01.629Z,94.5
2023-05-01T19:37:07.707Z,92.5
2023-05-01T19:42:13.808Z,94.5
2023-05-01T19:47:19.965Z,95
2023-05-01T19:52:25.976Z,92
2023-05-01T19:57:32.125Z,94
2023-05-01T20:02:38.252Z,94.5
2023-05-01T20:07:44.280Z,94
2023-05-01T20:12:50.346Z,93.5
2023-05-01T20:18:02.127Z,93.5
2023-05-01T20:23:08.207Z,95.5
2023-05-01T20:28:14.294Z,95
2023-05-01T20:33:20.395Z,94
2023-05-01T20:38:26.463Z,94.5
2023-05-01T20:43:32.576Z,95.5
2023-05-01T20:48:38.658Z,95
2023-05-01T20:53:44.764Z,94.5
2023-05-01T20:58:50.857Z,95.5
2023-05-01T21:03:56.996Z,95
2023-05-01T21:09:03.020Z,95
2023-05-01T21:14:09.177Z,95.5
2023-05-01T21:19:15.197Z,95
2023-05-01T21:24:21.331Z,95
2023-05-01T21:29:27.489Z,95
2023-05-01T21:34:33.499Z,95.5
2023-05-01T21:39:39.613Z,94
2023-05-01T21:44:45.712Z,94.5
2023-05-01T21:49:51.772Z,95
2023-05-01T21:54:57.868Z,95
2023-05-01T22:00:09.611Z,93
2023-05-01T22:05:21.347Z,94
2023-05-01T22:10:27.438Z,94
2023-05-01T22:15:33.550Z,95
2023-05-01T22:20:39.632Z,95
2023-05-01T22:25:45.763Z,94.5
2023-05-01T22:30:51.879Z,94.5
2023-05-01T22:35:57.958Z,94.5
2023-05-01T22:41:04.026Z,93
2023-05-01T22:46:10.182Z,92
2023-05-01T22:51:16.248Z,92
2023-05-01T22:56:22.327Z,92.5
2023-05-01T23:01:28.441Z,89
2023-05-01T23:06:34.532Z,90.5
2023-05-01T23:11:40.644Z,91.5
2023-05-01T23:16:46.714Z,91.5
2023-05-01T23:21:52.795Z,92
2023-05-01T23:26:58.866Z,93
2023-05-01T23:32:05.013Z,93
2023-05-01T23:37:11.051Z,94
2023-05-01T23:42:17.163Z,92
2023-05-01T23:47:28.921Z,92
2023-05-01T23:52:40.662Z,93
2023-05-01T23:57:46.693Z,93
